createdAt,value
2018-03-20T00:00:17.366Z,95131.94
2018-03-20T00:02:45.778Z,95136.83
2018-03-20T00:05:14.152Z,95136.18
2018-03-20T00:07:42.461Z,95128.73
2018-03-20T00:10:10.825Z,95134.05
2018-03-20T00:12:39.213Z,95137.09
2018-03-20T00:15:07.578Z,95137.41
2018-03-20T00:17:35.943Z,95136.70
2018-03-20T00:20:04.287Z,95137.11
2018-03-20T00:22:32.618Z,95143.99
2018-03-20T00:25:00.982Z,95141.60
2018-03-20T00:27:29.311Z,95146.50
2018-03-20T00:29:57.729Z,95150.49
2018-03-20T00:32:26.086Z,95147.14
2018-03-20T00:34:54.419Z,95144.25
2018-03-20T00:37:22.746Z,95141.88
2018-03-20T00:39:51.096Z,95142.00
2018-03-20T00:42:19.434Z,95142.59
2018-03-20T00:44:47.807Z,95143.20
2018-03-20T00:47:16.285Z,95147.63
2018-03-20T00:49:44.667Z,95149.35
2018-03-20T00:52:13.015Z,95146.11
2018-03-20T00:54:41.339Z,95139.74
2018-03-20T00:57:09.679Z,95144.11
2018-03-20T00:59:38.600Z,95142.45
2018-03-20T01:02:06.950Z,95144.88
2018-03-20T01:04:35.339Z,95138.98
2018-03-20T01:07:03.728Z,95140.66
2018-03-20T01:09:32.071Z,95140.95
2018-03-20T01:12:00.470Z,95139.48
2018-03-20T01:14:28.810Z,95138.83
2018-03-20T01:16:57.238Z,95140.53
2018-03-20T01:19:25.650Z,95141.20
2018-03-20T01:21:54.100Z,95141.32
2018-03-20T01:24:22.432Z,95141.18
2018-03-20T01:26:50.857Z,95135.48
2018-03-20T01:29:19.175Z,95144.38
2018-03-20T01:31:47.543Z,95131.50
2018-03-20T01:34:15.893Z,95129.20
2018-03-20T01:36:44.246Z,95122.70
2018-03-20T01:39:12.639Z,95124.75
2018-03-20T01:41:40.991Z,95116.98
2018-03-20T01:44:09.398Z,95115.27
2018-03-20T01:46:37.871Z,95121.94
2018-03-20T01:49:06.206Z,95116.67
2018-03-20T01:51:34.626Z,95113.94
2018-03-20T01:54:02.945Z,95119.66
2018-03-20T01:56:31.286Z,95117.52
2018-03-20T01:58:59.652Z,95119.57
2018-03-20T02:01:27.984Z,95121.98
2018-03-20T02:03:56.384Z,95112.14
2018-03-20T02:06:24.796Z,95117.92
2018-03-20T02:08:53.161Z,95114.87
2018-03-20T02:11:21.495Z,95120.89
2018-03-20T02:13:49.852Z,95120.50
2018-03-20T02:16:18.170Z,95116.91
2018-03-20T02:18:46.528Z,95119.16
2018-03-20T02:21:14.867Z,95123.84
2018-03-20T02:23:43.228Z,95119.82
2018-03-20T02:26:11.545Z,95126.80
2018-03-20T02:28:39.886Z,95119.57
2018-03-20T02:31:08.214Z,95124.81
2018-03-20T02:33:36.575Z,95123.14
2018-03-20T02:36:04.926Z,95129.31
2018-03-20T02:38:33.286Z,95132.31
2018-03-20T02:41:01.616Z,95121.55
2018-03-20T02:43:29.970Z,95125.67
2018-03-20T02:45:58.299Z,95128.84
2018-03-20T02:48:26.668Z,95128.98
2018-03-20T02:50:55.105Z,95130.45
2018-03-20T02:53:23.440Z,95128.47
2018-03-20T02:55:51.794Z,95127.52
2018-03-20T02:58:20.115Z,95137.11
2018-03-20T03:00:48.673Z,95132.72
2018-03-20T03:03:17.065Z,95136.95
2018-03-20T03:05:45.465Z,95142.80
2018-03-20T03:08:13.856Z,95143.98
2018-03-20T03:10:42.226Z,95140.88
2018-03-20T03:13:10.578Z,95146.65
2018-03-20T03:15:38.982Z,95158.42
2018-03-20T03:18:07.362Z,95156.84
2018-03-20T03:20:35.733Z,95162.02
2018-03-20T03:23:04.063Z,95159.90
2018-03-20T03:25:32.423Z,95161.01
2018-03-20T03:28:01.791Z,95164.43
2018-03-20T03:30:30.176Z,95168.84
2018-03-20T03:32:58.553Z,95168.24
2018-03-20T03:35:26.907Z,95170.23
2018-03-20T03:37:55.307Z,95169.06
2018-03-20T03:40:23.662Z,95171.30
2018-03-20T03:42:52.075Z,95171.30
2018-03-20T03:45:20.446Z,95177.29
2018-03-20T03:47:48.784Z,95176.55
2018-03-20T03:50:17.146Z,95180.59
2018-03-20T03:52:45.478Z,95181.91
2018-03-20T03:55:13.807Z,95182.05
2018-03-20T03:57:42.154Z,95190.45
2018-03-20T04:00:10.484Z,95188.33
2018-03-20T04:02:38.842Z,95190.85
2018-03-20T04:05:07.176Z,95195.08
2018-03-20T04:07:35.664Z,95189.58
2018-03-20T04:10:03.992Z,95201.94
2018-03-20T04:12:32.359Z,95191.78
2018-03-20T04:15:00.695Z,95199.50
2018-03-20T04:17:29.044Z,95193.48
2018-03-20T04:19:57.383Z,95202.62
2018-03-20T04:22:25.826Z,95206.63
2018-03-20T04:24:54.251Z,95201.72
2018-03-20T04:27:22.858Z,95199.13
2018-03-20T04:29:51.262Z,95201.66
2018-03-20T04:32:19.740Z,95208.84
2018-03-20T04:34:48.126Z,95207.39
2018-03-20T04:37:16.550Z,95207.55
2018-03-20T04:39:44.889Z,95211.25
2018-03-20T04:42:13.252Z,95217.31
2018-03-20T04:44:41.569Z,95215.34
2018-03-20T04:47:09.938Z,95218.78
2018-03-20T04:49:38.255Z,95214.90
2018-03-20T04:52:06.624Z,95212.91
2018-03-20T04:54:34.955Z,95208.16
2018-03-20T04:57:03.283Z,95208.83
2018-03-20T04:59:31.639Z,95212.84
2018-03-20T05:01:59.967Z,95212.16
2018-03-20T05:04:28.350Z,95213.30
2018-03-20T05:06:56.676Z,95216.55
2018-03-20T05:09:25.054Z,95219.52
2018-03-20T05:11:53.376Z,95221.83
2018-03-20T05:14:21.898Z,95222.95
2018-03-20T05:16:50.215Z,95220.50
2018-03-20T05:22:34.758Z,95222.19
2018-03-20T05:25:03.135Z,95230.22
2018-03-20T05:27:31.478Z,95233.94
2018-03-20T05:29:59.822Z,95240.05
2018-03-20T05:32:28.150Z,95235.16
2018-03-20T05:34:56.494Z,95242.97
2018-03-20T05:37:24.833Z,95244.44
2018-03-20T05:39:53.194Z,95247.55
2018-03-20T05:42:21.521Z,95255.05
2018-03-20T05:44:49.871Z,95252.28
2018-03-20T05:47:32.832Z,95254.00
2018-03-20T05:50:06.780Z,95255.88
2018-03-20T05:52:35.132Z,95263.20
2018-03-20T05:55:03.478Z,95265.63
2018-03-20T05:57:31.875Z,95257.46
2018-03-20T06:00:00.192Z,95262.59
2018-03-20T06:02:28.540Z,95267.73
2018-03-20T06:04:56.904Z,95264.13
2018-03-20T06:07:25.267Z,95267.47
2018-03-20T06:09:53.591Z,95270.76
2018-03-20T06:12:21.946Z,95271.19
2018-03-20T06:14:50.266Z,95276.19
2018-03-20T06:17:18.615Z,95281.88
2018-03-20T06:19:46.970Z,95279.97
2018-03-20T06:22:15.318Z,95290.03
2018-03-20T06:24:43.658Z,95296.05
2018-03-20T06:27:12.014Z,95295.63
2018-03-20T06:29:40.387Z,95300.15
2018-03-20T06:32:08.754Z,95305.76
2018-03-20T06:34:37.058Z,95306.53
2018-03-20T06:37:05.526Z,95308.68
2018-03-20T06:39:33.915Z,95316.47
2018-03-20T06:42:02.313Z,95320.69
2018-03-20T06:44:30.622Z,95323.26
2018-03-20T06:46:58.983Z,95325.73
2018-03-20T06:49:27.325Z,95334.80
2018-03-20T06:51:55.663Z,95340.30
2018-03-20T06:54:24.022Z,95348.25
2018-03-20T06:56:52.447Z,95343.87
2018-03-20T06:59:20.803Z,95344.83
2018-03-20T07:01:49.131Z,95350.75
2018-03-20T07:04:17.588Z,95352.59
2018-03-20T07:06:45.919Z,95363.14
2018-03-20T07:09:14.259Z,95360.55
2018-03-20T07:11:42.588Z,95367.72
2018-03-20T07:14:10.989Z,95369.45
2018-03-20T07:16:39.310Z,95363.03
2018-03-20T07:19:07.658Z,95367.84
2018-03-20T07:21:35.982Z,95369.63
2018-03-20T07:24:04.395Z,95373.00
2018-03-20T07:26:32.717Z,95382.53
2018-03-20T07:29:01.916Z,95374.65
2018-03-20T07:31:30.252Z,95377.98
2018-03-20T07:33:58.607Z,95390.15
2018-03-20T07:36:26.931Z,95380.45
2018-03-20T07:38:55.319Z,95382.86
2018-03-20T07:41:23.667Z,95386.00
2018-03-20T07:43:52.033Z,95392.54
2018-03-20T07:46:20.434Z,95382.05
2018-03-20T07:48:48.782Z,95394.95
2018-03-20T07:51:17.141Z,95397.92
2018-03-20T07:53:45.492Z,95405.11
2018-03-20T07:56:13.833Z,95408.84
2018-03-20T07:58:42.158Z,95405.29
2018-03-20T08:01:10.501Z,95408.42
2018-03-20T08:03:38.862Z,95414.64
2018-03-20T08:06:07.385Z,95407.41
2018-03-20T08:08:35.720Z,95416.41
2018-03-20T08:11:04.114Z,95418.37
2018-03-20T08:13:32.662Z,95431.05
2018-03-20T08:16:01.065Z,95424.92
2018-03-20T08:18:29.389Z,95430.56
2018-03-20T08:20:57.825Z,95426.43
2018-03-20T08:23:26.159Z,95432.05
2018-03-20T08:25:54.659Z,95423.86
2018-03-20T08:28:23.055Z,95431.55
2018-03-20T08:30:51.412Z,95438.24
2018-03-20T08:33:19.818Z,95434.80
2018-03-20T08:35:48.171Z,95435.33
2018-03-20T08:38:16.504Z,95439.19
2018-03-20T08:40:44.868Z,95446.38
2018-03-20T08:43:13.450Z,95445.88
2018-03-20T08:45:41.806Z,95449.18
2018-03-20T08:48:10.199Z,95446.13
2018-03-20T08:50:38.544Z,95447.86
2018-03-20T08:53:06.882Z,95446.13
2018-03-20T08:55:35.916Z,95446.50
2018-03-20T08:58:04.319Z,95450.51
2018-03-20T09:00:32.702Z,95451.81
2018-03-20T09:03:01.049Z,95460.78
2018-03-20T09:05:29.386Z,95470.22
2018-03-20T09:07:57.730Z,95463.70
2018-03-20T09:10:26.103Z,95465.17
2018-03-20T09:12:54.461Z,95466.64
2018-03-20T09:15:22.862Z,95470.75
2018-03-20T09:17:51.220Z,95474.49
2018-03-20T09:20:19.618Z,95471.80
2018-03-20T09:22:48.010Z,95478.95
2018-03-20T09:25:16.338Z,95475.25
2018-03-20T09:27:44.752Z,95474.63
2018-03-20T09:30:13.080Z,95477.95
2018-03-20T09:32:41.511Z,95481.22
2018-03-20T09:35:09.883Z,95483.91
2018-03-20T09:37:38.223Z,95487.41
2018-03-20T09:40:06.602Z,95490.69
2018-03-20T09:42:34.935Z,95489.00
2018-03-20T09:45:03.259Z,95492.17
2018-03-20T09:47:31.690Z,95502.08
2018-03-20T09:50:00.007Z,95499.51
2018-03-20T09:52:28.507Z,95490.14
2018-03-20T09:54:56.838Z,95495.44
2018-03-20T09:57:25.911Z,95496.32
2018-03-20T09:59:54.248Z,95495.93
2018-03-20T10:02:22.576Z,95498.19
2018-03-20T10:04:50.942Z,95493.19
2018-03-20T10:07:19.472Z,95494.20
2018-03-20T10:09:47.723Z,95498.14
2018-03-20T10:12:16.043Z,95497.42
2018-03-20T10:14:44.388Z,95496.27
2018-03-20T10:17:12.704Z,95502.98
2018-03-20T10:19:41.111Z,95502.10
2018-03-20T10:22:09.487Z,95503.28
2018-03-20T10:24:37.824Z,95502.95
2018-03-20T10:27:06.149Z,95504.28
2018-03-20T10:29:34.566Z,95504.58
2018-03-20T10:32:02.894Z,95504.80
2018-03-20T10:34:31.247Z,95501.30
2018-03-20T10:36:59.568Z,95502.23
2018-03-20T10:39:27.914Z,95506.26
2018-03-20T10:41:56.344Z,95508.53
2018-03-20T10:44:24.672Z,95500.21
2018-03-20T10:46:53.058Z,95505.63
2018-03-20T10:49:21.436Z,95506.47
2018-03-20T10:51:49.764Z,95506.27
2018-03-20T10:54:18.123Z,95501.73
2018-03-20T10:56:46.448Z,95504.59
2018-03-20T10:59:14.822Z,95507.47
2018-03-20T11:01:46.200Z,95505.20
2018-03-20T11:04:14.523Z,95499.93
2018-03-20T11:06:42.968Z,95499.83
2018-03-20T11:09:11.283Z,95504.67
2018-03-20T11:11:39.707Z,95500.42
2018-03-20T11:14:08.019Z,95498.89
2018-03-20T11:16:36.367Z,95504.22
2018-03-20T11:19:04.687Z,95502.07
2018-03-20T11:21:33.019Z,95505.06
2018-03-20T11:24:01.342Z,95501.23
2018-03-20T11:26:29.837Z,95506.14
2018-03-20T11:28:58.300Z,95497.63
2018-03-20T11:31:26.640Z,95516.04
2018-03-20T11:33:55.022Z,95515.52
2018-03-20T11:36:23.378Z,95514.94
2018-03-20T11:38:51.698Z,95515.62
2018-03-20T11:41:20.051Z,95517.15
2018-03-20T11:43:48.436Z,95519.71
2018-03-20T11:46:16.807Z,95516.23
2018-03-20T11:48:45.126Z,95517.38
2018-03-20T11:51:13.487Z,95528.08
2018-03-20T11:53:41.953Z,95524.13
2018-03-20T11:56:10.256Z,95511.02
2018-03-20T11:58:38.590Z,95516.51
2018-03-20T12:01:06.912Z,95513.27
2018-03-20T12:03:35.266Z,95512.52
2018-03-20T12:06:03.578Z,95517.33
2018-03-20T12:08:43.979Z,95511.61
2018-03-20T12:11:12.374Z,95519.03
2018-03-20T12:13:40.752Z,95517.72
2018-03-20T12:16:10.048Z,95513.80
2018-03-20T12:18:38.401Z,95516.44
2018-03-20T12:21:06.818Z,95518.32
2018-03-20T12:23:35.147Z,95515.11
2018-03-20T12:26:03.495Z,95509.07
2018-03-20T12:28:31.846Z,95507.44
2018-03-20T12:31:00.226Z,95507.13
2018-03-20T12:33:28.561Z,95513.02
2018-03-20T12:35:56.930Z,95523.81
2018-03-20T12:38:25.346Z,95525.14
2018-03-20T12:40:53.728Z,95522.70
2018-03-20T12:43:22.114Z,95538.64
2018-03-20T12:45:50.429Z,95544.41
2018-03-20T12:48:18.756Z,95540.94
2018-03-20T12:50:47.112Z,95536.67
2018-03-20T12:53:15.458Z,95524.27
2018-03-20T12:55:43.800Z,95523.21
2018-03-20T12:58:12.132Z,95528.09
2018-03-20T13:00:40.475Z,95530.59
2018-03-20T13:03:08.827Z,95535.08
2018-03-20T13:05:37.173Z,95532.35
2018-03-20T13:08:05.486Z,95523.75
2018-03-20T13:10:33.903Z,95528.41
2018-03-20T13:13:02.276Z,95530.21
2018-03-20T13:15:30.614Z,95530.59
2018-03-20T13:17:58.959Z,95526.17
2018-03-20T13:20:27.378Z,95531.48
2018-03-20T13:22:55.705Z,95529.94
2018-03-20T13:25:24.126Z,95543.74
2018-03-20T13:27:52.476Z,95542.61
2018-03-20T13:30:20.891Z,95546.36
2018-03-20T13:32:49.210Z,95542.25
2018-03-20T13:35:17.565Z,95542.28
2018-03-20T13:37:45.887Z,95548.95
2018-03-20T13:40:14.302Z,95553.39
2018-03-20T13:42:42.623Z,95546.20
2018-03-20T13:45:10.967Z,95557.55
2018-03-20T13:47:39.332Z,95560.09
2018-03-20T13:50:07.639Z,95555.14
2018-03-20T13:52:35.987Z,95557.98
2018-03-20T13:55:04.354Z,95561.47
2018-03-20T13:57:32.780Z,95564.09
2018-03-20T14:00:01.115Z,95566.43
2018-03-20T14:02:29.495Z,95567.17
2018-03-20T14:04:57.818Z,95566.91
2018-03-20T14:07:26.168Z,95567.80
2018-03-20T14:09:54.488Z,95571.61
2018-03-20T14:12:22.839Z,95580.40
2018-03-20T14:14:51.151Z,95584.28
2018-03-20T14:17:19.511Z,95591.55
2018-03-20T14:19:47.827Z,95587.65
2018-03-20T14:22:16.181Z,95596.23
2018-03-20T14:24:44.598Z,95595.78
2018-03-20T14:27:12.963Z,95601.39
2018-03-20T14:29:41.350Z,95608.11
2018-03-20T14:32:09.694Z,95606.66
2018-03-20T14:34:38.093Z,95604.78
2018-03-20T14:37:06.482Z,95611.52
2018-03-20T14:39:34.864Z,95615.80
2018-03-20T14:42:03.239Z,95613.02
2018-03-20T14:44:31.558Z,95621.06
2018-03-20T14:46:59.900Z,95622.62
2018-03-20T14:49:28.271Z,95615.78
2018-03-20T14:51:56.599Z,95624.67
2018-03-20T14:54:24.935Z,95621.44
2018-03-20T14:56:53.267Z,95626.42
2018-03-20T14:59:21.678Z,95620.11
2018-03-20T15:01:50.116Z,95626.89
2018-03-20T15:04:18.435Z,95627.06
2018-03-20T15:06:46.814Z,95638.19
2018-03-20T15:09:15.165Z,95630.75
2018-03-20T15:11:43.575Z,95638.42
2018-03-20T15:14:11.942Z,95642.09
2018-03-20T15:16:40.340Z,95652.92
2018-03-20T15:19:08.702Z,95649.09
2018-03-20T15:21:37.098Z,95645.34
2018-03-20T15:24:05.434Z,95640.27
2018-03-20T15:26:33.875Z,95650.57
2018-03-20T15:29:02.735Z,95649.42
2018-03-20T15:31:31.128Z,95645.78
2018-03-20T15:33:59.478Z,95659.56
2018-03-20T15:36:27.787Z,95667.05
2018-03-20T15:38:56.144Z,95659.95
2018-03-20T15:41:24.478Z,95661.95
2018-03-20T15:43:52.845Z,95665.02
2018-03-20T15:46:21.189Z,95670.55
2018-03-20T15:48:49.520Z,95667.86
2018-03-20T15:51:17.880Z,95672.50
2018-03-20T15:53:46.214Z,95673.96
2018-03-20T15:56:14.562Z,95674.03
2018-03-20T15:58:42.891Z,95685.06
2018-03-20T16:01:11.253Z,95682.55
2018-03-20T16:03:39.646Z,95685.25
2018-03-20T16:06:07.988Z,95698.30
2018-03-20T16:08:36.396Z,95699.21
2018-03-20T16:11:04.763Z,95702.02
2018-03-20T16:13:33.084Z,95707.34
2018-03-20T16:16:01.507Z,95725.36
2018-03-20T16:18:29.883Z,95715.47
2018-03-20T16:20:58.219Z,95721.58
2018-03-20T16:23:26.546Z,95731.63
2018-03-20T16:25:54.907Z,95741.70
2018-03-20T16:28:23.311Z,95742.05
2018-03-20T16:30:51.781Z,95747.06
2018-03-20T16:33:20.154Z,95752.86
2018-03-20T16:35:48.555Z,95749.98
2018-03-20T16:38:16.919Z,95763.78
2018-03-20T16:40:45.278Z,95761.52
2018-03-20T16:43:13.590Z,95774.53
2018-03-20T16:45:42.058Z,95771.30
2018-03-20T16:48:10.379Z,95781.06
2018-03-20T16:50:38.682Z,95788.53
2018-03-20T16:53:07.128Z,95790.61
2018-03-20T16:55:35.444Z,95791.89
2018-03-20T16:58:03.781Z,95790.41
2018-03-20T17:00:32.091Z,95791.49
2018-03-20T17:03:00.435Z,95794.84
2018-03-20T17:05:28.772Z,95802.20
2018-03-20T17:07:57.107Z,95804.21
2018-03-20T17:10:25.426Z,95816.30
2018-03-20T17:12:53.767Z,95813.55
2018-03-20T17:15:22.089Z,95821.95
2018-03-20T17:17:50.452Z,95822.38
2018-03-20T17:20:18.770Z,95826.14
2018-03-20T17:22:47.183Z,95828.25
2018-03-20T17:25:15.462Z,95832.80
2018-03-20T17:27:43.807Z,95833.12
2018-03-20T17:30:12.167Z,95839.56
2018-03-20T17:32:40.500Z,95844.23
2018-03-20T17:35:08.916Z,95849.98
2018-03-20T17:37:37.259Z,95850.11
2018-03-20T17:40:05.591Z,95860.80
2018-03-20T17:42:34.143Z,95866.39
2018-03-20T17:45:02.455Z,95861.72
2018-03-20T17:47:30.783Z,95860.52
2018-03-20T17:49:59.175Z,95873.48
2018-03-20T17:52:27.570Z,95874.83
2018-03-20T17:54:55.935Z,95884.27
2018-03-20T17:57:24.282Z,95887.45
2018-03-20T17:59:52.607Z,95892.80
2018-03-20T18:02:20.926Z,95900.00
2018-03-20T18:04:49.352Z,95902.81
2018-03-20T18:07:17.734Z,95909.88
2018-03-20T18:09:46.079Z,95918.98
2018-03-20T18:12:14.479Z,95922.09
2018-03-20T18:14:42.832Z,95928.36
2018-03-20T18:17:11.178Z,95930.90
2018-03-20T18:19:39.479Z,95940.78
2018-03-20T18:22:07.803Z,95946.23
2018-03-20T18:24:36.131Z,95954.61
2018-03-20T18:27:04.464Z,95953.52
2018-03-20T18:29:32.831Z,95962.52
2018-03-20T18:32:01.155Z,95972.27
2018-03-20T18:34:29.532Z,95975.23
2018-03-20T18:36:57.865Z,95980.72
2018-03-20T18:39:26.199Z,95983.30
2018-03-20T18:41:54.524Z,95992.06
2018-03-20T18:44:22.887Z,95992.98
2018-03-20T18:46:51.234Z,95996.39
2018-03-20T18:49:19.643Z,95994.20
2018-03-20T18:51:48.021Z,96001.55
2018-03-20T18:54:16.407Z,96003.39
2018-03-20T18:56:44.747Z,95999.75
2018-03-20T18:59:13.059Z,96004.80
2018-03-20T19:01:41.398Z,96012.02
2018-03-20T19:04:09.732Z,96011.45
2018-03-20T19:06:38.064Z,96020.45
2018-03-20T19:09:06.385Z,96025.94
2018-03-20T19:11:34.742Z,96022.97
2018-03-20T19:14:03.082Z,96034.03
2018-03-20T19:16:31.432Z,96031.71
2018-03-20T19:18:59.740Z,96041.62
2018-03-20T19:21:28.084Z,96052.63
2018-03-20T19:23:56.414Z,96054.50
2018-03-20T19:26:24.766Z,96057.63
2018-03-20T19:28:53.133Z,96060.27
2018-03-20T19:31:21.476Z,96063.44
2018-03-20T19:33:49.815Z,96071.98
2018-03-20T19:36:18.206Z,96064.34
2018-03-20T19:38:46.543Z,96075.28
2018-03-20T19:41:15.017Z,96079.38
2018-03-20T19:43:43.326Z,96078.78
2018-03-20T19:46:11.674Z,96082.11
2018-03-20T19:48:40.152Z,96090.22
2018-03-20T19:51:08.672Z,96101.89
2018-03-20T19:53:37.622Z,96094.64
2018-03-20T19:56:07.200Z,96095.61
2018-03-20T19:58:35.822Z,96097.87
2018-03-20T20:01:04.243Z,96105.84
2018-03-20T20:03:33.784Z,96106.48
2018-03-20T20:06:03.378Z,96106.48
2018-03-20T20:08:31.759Z,96109.84
2018-03-20T20:11:00.127Z,96110.22
2018-03-20T20:13:28.501Z,96111.53
2018-03-20T20:15:56.880Z,96117.27
2018-03-20T20:18:25.244Z,96117.84
2018-03-20T20:20:55.438Z,96128.28
2018-03-20T20:23:23.803Z,96126.55
2018-03-20T20:25:52.235Z,96124.19
2018-03-20T20:28:20.587Z,96132.10
2018-03-20T20:30:49.336Z,96130.07
2018-03-20T20:33:17.682Z,96129.28
2018-03-20T20:35:46.059Z,96126.75
2018-03-20T20:38:14.457Z,96130.38
2018-03-20T20:40:42.815Z,96140.60
2018-03-20T20:43:11.234Z,96144.92
2018-03-20T20:45:39.564Z,96142.02
2018-03-20T20:48:07.949Z,96145.11
2018-03-20T20:50:36.287Z,96149.34
2018-03-20T20:53:04.704Z,96141.83
2018-03-20T20:55:33.051Z,96143.95
2018-03-20T20:58:01.382Z,96150.92
2018-03-20T21:00:29.727Z,96153.16
2018-03-20T21:02:58.067Z,96156.83
2018-03-20T21:05:26.410Z,96150.70
2018-03-20T21:07:54.883Z,96155.78
2018-03-20T21:10:23.228Z,96151.69
2018-03-20T21:12:51.627Z,96151.98
2018-03-20T21:15:19.974Z,96155.57
2018-03-20T21:17:48.383Z,96152.07
2018-03-20T21:20:16.758Z,96161.73
2018-03-20T21:22:45.091Z,96163.59
2018-03-20T21:25:13.444Z,96161.27
2018-03-20T21:27:41.762Z,96163.25
2018-03-20T21:30:10.204Z,96166.31
2018-03-20T21:32:38.549Z,96166.30
2018-03-20T21:35:06.897Z,96165.56
2018-03-20T21:37:35.224Z,96166.95
2018-03-20T21:40:03.702Z,96169.17
2018-03-20T21:42:32.044Z,96168.72
2018-03-20T21:45:00.415Z,96166.77
2018-03-20T21:47:28.731Z,96170.17
2018-03-20T21:49:57.121Z,96169.59
2018-03-20T21:52:25.483Z,96169.39
2018-03-20T21:54:53.899Z,96165.95
2018-03-20T21:57:22.331Z,96171.27
2018-03-20T21:59:50.654Z,96175.26
2018-03-20T22:02:19.092Z,96171.19
2018-03-20T22:04:47.418Z,96170.66
2018-03-20T22:07:15.848Z,96177.82
2018-03-20T22:09:44.325Z,96174.88
2018-03-20T22:12:12.710Z,96181.87
2018-03-20T22:14:41.034Z,96180.39
2018-03-20T22:17:09.397Z,96172.84
2018-03-20T22:19:37.714Z,96183.81
2018-03-20T22:22:06.069Z,96175.39
2018-03-20T22:24:34.511Z,96178.60
2018-03-20T22:27:02.908Z,96179.36
2018-03-20T22:29:31.227Z,96182.42
2018-03-20T22:31:59.636Z,96181.44
2018-03-20T22:34:27.965Z,96183.98
2018-03-20T22:36:56.302Z,96185.86
2018-03-20T22:39:24.634Z,96186.24
2018-03-20T22:41:53.050Z,96185.71
2018-03-20T22:44:21.382Z,96181.64
2018-03-20T22:46:49.806Z,96188.83
2018-03-20T22:49:18.141Z,96188.61
2018-03-20T22:51:46.461Z,96187.95
2018-03-20T22:54:14.813Z,96196.67
2018-03-20T22:56:43.134Z,96190.37
2018-03-20T22:59:11.600Z,96189.52
2018-03-20T23:01:39.926Z,96197.81
2018-03-20T23:04:08.283Z,96195.14
2018-03-20T23:06:36.621Z,96194.11
2018-03-20T23:09:04.995Z,96190.20
2018-03-20T23:11:33.332Z,96199.56
2018-03-20T23:14:01.751Z,96194.98
2018-03-20T23:16:30.130Z,96194.98
2018-03-20T23:18:58.494Z,96194.23
2018-03-20T23:21:26.807Z,96201.35
2018-03-20T23:23:55.166Z,96195.09
2018-03-20T23:26:23.496Z,96187.30
2018-03-20T23:28:51.936Z,96190.05
2018-03-20T23:31:20.270Z,96188.99
2018-03-20T23:33:48.680Z,96188.33
2018-03-20T23:36:17.076Z,96192.95
2018-03-20T23:38:45.436Z,96190.99
2018-03-20T23:41:13.759Z,96192.58
2018-03-20T23:43:42.113Z,96186.64
2018-03-20T23:46:10.443Z,96185.75
2018-03-20T23:48:38.810Z,96190.57
2018-03-20T23:51:07.152Z,96202.64
2018-03-20T23:53:35.479Z,96202.22
2018-03-20T23:56:03.887Z,96193.84
2018-03-20T23:58:32.233Z,96201.64
